createdAt,value
2022-10-21T00:00:57.046Z,5.68
2022-10-21T00:02:28.781Z,6.30
2022-10-21T00:04:02.505Z,6.22
2022-10-21T00:05:34.363Z,4.78
2022-10-21T00:07:06.114Z,6.88
2022-10-21T00:08:38.473Z,6.53
2022-10-21T00:10:10.429Z,6.43
2022-10-21T00:11:42.207Z,6.43
2022-10-21T00:13:13.961Z,5.95
2022-10-21T00:14:45.697Z,6.53
2022-10-21T00:16:19.142Z,6.25
2022-10-21T00:17:50.969Z,6.28
2022-10-21T00:19:22.751Z,6.20
2022-10-21T00:20:54.533Z,6.10
2022-10-21T00:22:26.292Z,6.63
2022-10-21T00:23:58.018Z,5.47
2022-10-21T00:25:29.803Z,5.90
2022-10-21T00:27:02.862Z,6.30
2022-10-21T00:28:34.670Z,6.35
2022-10-21T00:30:07.731Z,6.00
2022-10-21T00:31:39.504Z,6.60
2022-10-21T00:33:12.683Z,6.32
2022-10-21T00:34:44.638Z,6.82
2022-10-21T00:36:16.583Z,6.25
2022-10-21T00:37:48.315Z,5.95
2022-10-21T00:39:20.075Z,6.47
2022-10-21T00:40:51.930Z,6.28
2022-10-21T00:42:35.402Z,6.13
2022-10-21T00:44:12.054Z,5.72
2022-10-21T00:45:44.674Z,5.90
2022-10-21T00:47:21.308Z,5.88
2022-10-21T00:48:57.908Z,7.07
2022-10-21T00:50:48.406Z,6.85
2022-10-21T00:52:23.680Z,6.53
2022-10-21T00:53:55.594Z,6.57
2022-10-21T00:55:32.143Z,6.53
2022-10-21T00:57:04.269Z,6.13
2022-10-21T00:58:37.440Z,6.07
2022-10-21T01:00:09.632Z,6.25
2022-10-21T01:01:41.452Z,7.15
2022-10-21T01:03:13.911Z,5.82
2022-10-21T01:04:47.301Z,6.45
2022-10-21T01:06:22.036Z,6.82
2022-10-21T01:07:54.269Z,6.65
2022-10-21T01:09:26.509Z,7.43
2022-10-21T01:10:59.308Z,7.88
2022-10-21T01:13:01.611Z,7.63
2022-10-21T01:14:53.652Z,6.82
2022-10-21T01:16:45.808Z,7.40
2022-10-21T01:18:31.173Z,7.45
2022-10-21T01:20:38.036Z,7.07
2022-10-21T01:22:47.596Z,7.95
2022-10-21T01:24:52.339Z,7.40
2022-10-21T01:26:57.440Z,7.72
2022-10-21T01:28:52.278Z,7.72
2022-10-21T01:30:37.212Z,7.38
2022-10-21T01:32:33.515Z,7.57
2022-10-21T01:34:11.490Z,7.15
2022-10-21T01:36:08.695Z,7.38
2022-10-21T01:38:06.962Z,7.20
2022-10-21T01:39:50.327Z,7.18
2022-10-21T01:41:37.814Z,6.68
2022-10-21T01:43:36.016Z,6.60
2022-10-21T01:45:10.702Z,7.32
2022-10-21T01:46:48.626Z,7.22
2022-10-21T01:48:33.638Z,7.75
2022-10-21T01:50:10.929Z,7.13
2022-10-21T01:51:42.979Z,6.47
2022-10-21T01:53:16.458Z,7.00
2022-10-21T01:54:55.349Z,7.07
2022-10-21T01:56:29.129Z,6.75
2022-10-21T01:58:07.323Z,7.10
2022-10-21T01:59:42.742Z,6.85
2022-10-21T02:01:17.254Z,6.93
2022-10-21T02:02:49.889Z,6.57
2022-10-21T02:04:24.308Z,5.72
2022-10-21T02:05:56.169Z,6.90
2022-10-21T02:07:29.051Z,6.53
2022-10-21T02:09:00.976Z,7.13
2022-10-21T02:10:36.952Z,7.00
2022-10-21T02:12:10.413Z,6.78
2022-10-21T02:13:48.713Z,6.45
2022-10-21T02:15:23.511Z,6.80
2022-10-21T02:16:56.105Z,6.63
2022-10-21T02:18:28.339Z,6.50
2022-10-21T02:20:03.556Z,6.93
2022-10-21T02:21:37.020Z,6.60
2022-10-21T02:23:15.491Z,6.65
2022-10-21T02:25:09.670Z,6.65
2022-10-21T02:26:41.617Z,7.07
2022-10-21T02:28:14.167Z,6.70
2022-10-21T02:29:48.560Z,6.55
2022-10-21T02:31:26.026Z,6.47
2022-10-21T02:33:03.638Z,6.60
2022-10-21T02:34:54.235Z,6.70
2022-10-21T02:36:43.805Z,7.00
2022-10-21T02:38:37.236Z,6.50
2022-10-21T02:40:28.641Z,7.00
2022-10-21T02:42:04.565Z,6.30
2022-10-21T02:43:56.154Z,6.72
2022-10-21T02:47:00.196Z,7.25
2022-10-21T02:48:36.438Z,6.63
2022-10-21T02:50:08.381Z,6.95
2022-10-21T02:51:41.732Z,6.10
2022-10-21T02:53:14.267Z,7.43
2022-10-21T02:54:46.041Z,7.15
2022-10-21T02:56:17.808Z,6.40
2022-10-21T02:57:49.791Z,6.53
2022-10-21T02:59:21.546Z,6.57
2022-10-21T03:00:53.560Z,6.72
2022-10-21T03:02:25.499Z,6.95
2022-10-21T03:03:57.241Z,6.97
2022-10-21T03:05:29.116Z,6.85
2022-10-21T03:07:00.990Z,6.70
2022-10-21T03:08:32.783Z,6.90
2022-10-21T03:10:05.535Z,6.55
2022-10-21T03:11:37.388Z,6.38
2022-10-21T03:13:09.250Z,6.55
2022-10-21T03:14:41.010Z,6.93
2022-10-21T03:16:12.834Z,7.07
2022-10-21T03:17:44.680Z,7.13
2022-10-21T03:19:16.385Z,6.80
2022-10-21T03:20:52.032Z,6.18
2022-10-21T03:22:23.933Z,7.60
2022-10-21T03:23:55.770Z,7.38
2022-10-21T03:25:28.930Z,7.43
2022-10-21T03:27:03.625Z,6.55
2022-10-21T03:28:35.359Z,6.90
2022-10-21T03:30:08.613Z,7.25
2022-10-21T03:31:40.394Z,6.80
2022-10-21T03:33:12.147Z,7.82
2022-10-21T03:34:43.890Z,8.30
2022-10-21T03:36:15.658Z,7.97
2022-10-21T03:37:47.477Z,7.82
2022-10-21T03:39:19.265Z,7.85
2022-10-21T03:40:51.797Z,8.25
2022-10-21T03:42:23.623Z,8.38
2022-10-21T03:43:55.366Z,7.85
2022-10-21T03:45:27.250Z,8.38
2022-10-21T03:46:58.989Z,7.00
2022-10-21T03:48:30.728Z,7.30
2022-10-21T03:50:02.643Z,8.13
2022-10-21T03:51:34.386Z,8.32
2022-10-21T03:53:13.738Z,7.95
2022-10-21T03:54:50.551Z,7.15
2022-10-21T03:56:22.288Z,7.45
2022-10-21T03:57:54.304Z,7.68
2022-10-21T03:59:26.447Z,8.10
2022-10-21T04:00:58.177Z,8.48
2022-10-21T04:02:29.923Z,8.60
2022-10-21T04:04:01.738Z,8.38
2022-10-21T04:05:33.582Z,8.18
2022-10-21T04:07:05.348Z,9.07
2022-10-21T04:08:37.152Z,8.18
2022-10-21T04:10:09.808Z,8.00
2022-10-21T04:11:41.533Z,8.30
2022-10-21T04:13:13.317Z,8.20
2022-10-21T04:14:45.066Z,8.63
2022-10-21T04:16:20.533Z,8.40
2022-10-21T04:17:52.423Z,8.27
2022-10-21T04:19:24.133Z,8.18
2022-10-21T04:20:56.094Z,8.27
2022-10-21T04:22:27.857Z,8.32
2022-10-21T04:23:59.627Z,8.45
2022-10-21T04:25:31.393Z,8.77
2022-10-21T04:27:03.371Z,8.20
2022-10-21T04:28:35.489Z,8.70
2022-10-21T04:30:08.090Z,9.13
2022-10-21T04:31:39.836Z,9.93
2022-10-21T04:33:11.593Z,8.32
2022-10-21T04:34:43.365Z,8.43
2022-10-21T04:36:15.138Z,8.73
2022-10-21T04:37:46.887Z,8.70
2022-10-21T04:39:19.327Z,8.63
2022-10-21T04:41:02.785Z,8.93
2022-10-21T04:42:34.729Z,8.48
2022-10-21T04:44:07.346Z,8.05
2022-10-21T04:45:40.173Z,8.40
2022-10-21T04:47:11.958Z,8.77
2022-10-21T04:48:44.080Z,9.45
2022-10-21T04:50:15.999Z,8.60
2022-10-21T04:51:47.825Z,8.60
2022-10-21T04:53:20.299Z,8.60
2022-10-21T04:54:52.012Z,8.45
2022-10-21T04:56:23.754Z,8.60
2022-10-21T04:57:55.519Z,8.50
2022-10-21T04:59:27.555Z,8.40
2022-10-21T05:00:59.367Z,8.48
2022-10-21T05:02:31.223Z,8.30
2022-10-21T05:04:03.084Z,8.93
2022-10-21T05:05:34.845Z,7.88
2022-10-21T05:07:06.628Z,8.27
2022-10-21T05:08:38.434Z,8.65
2022-10-21T05:10:10.222Z,8.40
2022-10-21T05:11:41.982Z,8.35
2022-10-21T05:13:14.426Z,8.77
2022-10-21T05:14:46.183Z,8.07
2022-10-21T05:16:17.954Z,8.93
2022-10-21T05:17:49.881Z,8.95
2022-10-21T05:19:21.596Z,8.10
2022-10-21T05:20:55.322Z,8.35
2022-10-21T05:22:27.065Z,8.93
2022-10-21T05:23:58.805Z,9.60
2022-10-21T05:25:34.139Z,8.98
2022-10-21T05:27:06.273Z,9.35
2022-10-21T05:28:38.015Z,8.57
2022-10-21T05:30:10.338Z,10.05
2022-10-21T05:31:42.170Z,9.95
2022-10-21T05:33:14.239Z,8.93
2022-10-21T05:34:45.989Z,8.63
2022-10-21T05:36:20.528Z,9.75
2022-10-21T05:37:55.038Z,9.85
2022-10-21T05:39:26.805Z,9.73
2022-10-21T05:40:59.205Z,9.63
2022-10-21T05:42:31.074Z,9.68
2022-10-21T05:44:03.340Z,9.35
2022-10-21T05:45:35.089Z,8.65
2022-10-21T05:47:06.941Z,9.68
2022-10-21T05:48:38.722Z,9.35
2022-10-21T05:50:12.213Z,9.90
2022-10-21T05:51:45.276Z,9.88
2022-10-21T05:53:17.145Z,9.82
2022-10-21T05:54:49.072Z,9.32
2022-10-21T05:56:21.057Z,9.20
2022-10-21T05:57:52.799Z,8.70
2022-10-21T05:59:25.861Z,8.18
2022-10-21T06:00:58.769Z,9.35
2022-10-21T06:02:30.533Z,8.90
2022-10-21T06:04:02.287Z,8.45
2022-10-21T06:05:35.321Z,8.70
2022-10-21T06:07:07.475Z,8.98
2022-10-21T06:08:39.684Z,9.02
2022-10-21T06:10:12.362Z,10.07
2022-10-21T06:11:44.123Z,9.25
2022-10-21T06:13:16.870Z,9.27
2022-10-21T06:14:48.706Z,9.02
2022-10-21T06:16:20.468Z,9.13
2022-10-21T06:17:52.363Z,9.00
2022-10-21T06:19:24.131Z,9.23
2022-10-21T06:20:56.112Z,8.30
2022-10-21T06:22:29.665Z,9.15
2022-10-21T06:24:01.428Z,8.82
2022-10-21T06:25:33.197Z,9.27
2022-10-21T06:27:05.143Z,9.60
2022-10-21T06:28:38.865Z,9.07
2022-10-21T06:30:11.155Z,8.90
2022-10-21T06:31:43.227Z,9.27
2022-10-21T06:33:15.005Z,8.57
2022-10-21T06:34:46.739Z,9.02
2022-10-21T06:36:18.587Z,8.60
2022-10-21T06:37:50.357Z,8.35
2022-10-21T06:39:22.112Z,8.68
2022-10-21T06:41:01.948Z,8.85
2022-10-21T06:42:34.038Z,9.23
2022-10-21T06:44:05.844Z,8.38
2022-10-21T06:45:37.918Z,8.40
2022-10-21T06:47:10.281Z,9.13
2022-10-21T06:48:42.436Z,8.27
2022-10-21T06:50:14.188Z,8.50
2022-10-21T06:51:45.909Z,8.82
2022-10-21T06:53:17.632Z,8.30
2022-10-21T06:54:49.598Z,8.63
2022-10-21T06:56:22.985Z,8.75
2022-10-21T06:57:54.761Z,8.95
2022-10-21T06:59:26.867Z,9.15
2022-10-21T07:00:58.798Z,8.82
2022-10-21T07:02:30.509Z,8.93
2022-10-21T07:04:03.941Z,8.90
2022-10-21T07:05:35.684Z,9.35
2022-10-21T07:07:07.395Z,8.65
2022-10-21T07:08:46.964Z,8.75
2022-10-21T07:10:29.210Z,8.80
2022-10-21T07:12:01.965Z,8.75
2022-10-21T07:13:35.424Z,9.00
2022-10-21T07:15:07.622Z,8.30
2022-10-21T07:16:39.474Z,8.93
2022-10-21T07:18:11.188Z,8.88
2022-10-21T07:19:43.018Z,9.88
2022-10-21T07:21:17.587Z,9.63
2022-10-21T07:22:49.276Z,10.18
2022-10-21T07:24:22.672Z,9.40
2022-10-21T07:25:54.638Z,9.85
2022-10-21T07:27:26.386Z,8.38
2022-10-21T07:29:00.405Z,8.68
2022-10-21T07:30:32.155Z,8.95
2022-10-21T07:32:03.993Z,9.07
2022-10-21T07:33:35.903Z,9.38
2022-10-21T07:35:07.993Z,8.45
2022-10-21T07:36:43.000Z,8.18
2022-10-21T07:38:15.184Z,8.75
2022-10-21T07:39:46.961Z,8.98
2022-10-21T07:41:25.214Z,8.80
2022-10-21T07:42:57.989Z,9.05
2022-10-21T07:44:30.058Z,8.63
2022-10-21T07:46:04.498Z,9.02
2022-10-21T07:47:38.818Z,9.18
2022-10-21T07:49:12.306Z,8.38
2022-10-21T07:50:44.039Z,9.35
2022-10-21T07:55:39.886Z,8.10
2022-10-21T07:57:11.647Z,7.95
2022-10-21T07:58:44.242Z,9.05
2022-10-21T08:00:15.976Z,9.20
2022-10-21T08:03:21.475Z,8.07
2022-10-21T08:04:55.121Z,7.82
2022-10-21T08:06:28.875Z,8.50
2022-10-21T08:08:00.606Z,7.22
2022-10-21T08:09:32.341Z,7.63
2022-10-21T08:11:04.997Z,7.97
2022-10-21T08:12:37.105Z,8.55
2022-10-21T08:14:10.281Z,8.13
2022-10-21T08:15:47.075Z,7.45
2022-10-21T08:17:18.890Z,8.48
2022-10-21T08:18:51.016Z,7.43
2022-10-21T08:20:22.981Z,7.88
2022-10-21T08:21:54.953Z,8.20
2022-10-21T08:23:26.748Z,7.95
2022-10-21T08:24:58.472Z,7.97
2022-10-21T08:26:30.610Z,7.50
2022-10-21T08:28:04.156Z,8.75
2022-10-21T08:29:37.767Z,7.50
2022-10-21T08:31:14.812Z,7.93
2022-10-21T08:32:46.577Z,8.13
2022-10-21T08:34:18.340Z,8.38
2022-10-21T08:35:50.082Z,8.00
2022-10-21T08:37:24.918Z,7.45
2022-10-21T08:38:58.596Z,7.90
2022-10-21T08:40:56.234Z,8.57
2022-10-21T08:42:28.078Z,8.25
2022-10-21T08:44:06.063Z,8.45
2022-10-21T08:45:55.653Z,7.68
2022-10-21T08:47:45.416Z,7.93
2022-10-21T08:49:29.873Z,7.20
2022-10-21T08:51:06.313Z,8.13
2022-10-21T08:52:49.058Z,7.57
2022-10-21T08:54:29.079Z,7.50
2022-10-21T08:56:07.095Z,7.95
2022-10-21T08:57:39.122Z,7.55
2022-10-21T08:59:23.014Z,8.38
2022-10-21T09:01:00.080Z,7.60
2022-10-21T09:03:05.274Z,8.48
2022-10-21T09:04:49.227Z,7.22
2022-10-21T09:06:49.513Z,8.00
2022-10-21T09:08:26.485Z,7.68
2022-10-21T09:10:03.073Z,7.72
2022-10-21T09:12:16.836Z,7.90
2022-10-21T09:13:52.313Z,7.50
2022-10-21T09:15:27.710Z,7.53
2022-10-21T09:17:23.383Z,7.47
2022-10-21T09:19:12.533Z,7.30
2022-10-21T09:21:03.199Z,6.60
2022-10-21T09:22:56.132Z,6.97
2022-10-21T09:24:52.328Z,7.72
2022-10-21T09:26:42.071Z,7.65
2022-10-21T09:28:16.094Z,7.20
2022-10-21T09:29:56.544Z,7.90
2022-10-21T09:31:29.271Z,7.40
2022-10-21T09:33:02.486Z,7.63
2022-10-21T09:34:49.900Z,6.82
2022-10-21T09:36:37.858Z,6.40
2022-10-21T09:38:26.111Z,7.20
2022-10-21T09:40:21.559Z,6.90
2022-10-21T09:41:59.322Z,6.63
2022-10-21T09:43:33.489Z,7.85
2022-10-21T09:45:06.858Z,7.38
2022-10-21T09:46:38.619Z,7.63
2022-10-21T09:48:19.754Z,7.32
2022-10-21T09:50:13.292Z,8.27
2022-10-21T09:51:45.660Z,8.13
2022-10-21T09:53:27.366Z,7.75
2022-10-21T09:54:59.426Z,8.02
2022-10-21T09:56:39.100Z,7.65
2022-10-21T09:58:24.936Z,7.50
2022-10-21T10:00:00.946Z,7.75
2022-10-21T10:01:32.828Z,7.30
2022-10-21T10:03:05.132Z,7.68
2022-10-21T10:04:36.867Z,7.50
2022-10-21T10:06:08.849Z,7.53
2022-10-21T10:07:40.569Z,7.60
2022-10-21T10:09:24.342Z,7.32
2022-10-21T10:11:21.832Z,7.80
2022-10-21T10:12:58.718Z,7.47
2022-10-21T10:14:38.461Z,7.72
2022-10-21T10:16:18.786Z,7.63
2022-10-21T10:17:50.578Z,7.25
2022-10-21T10:19:25.639Z,6.88
2022-10-21T10:21:12.636Z,7.20
2022-10-21T10:22:49.458Z,6.95
2022-10-21T10:24:22.026Z,7.07
2022-10-21T10:25:53.862Z,6.95
2022-10-21T10:27:26.724Z,6.97
2022-10-21T10:29:18.618Z,7.07
2022-10-21T10:30:54.296Z,7.88
2022-10-21T10:32:34.051Z,6.88
2022-10-21T10:34:08.829Z,6.68
2022-10-21T10:35:49.181Z,7.43
2022-10-21T10:37:24.476Z,6.90
2022-10-21T10:38:58.807Z,6.63
2022-10-21T10:40:39.758Z,6.82
2022-10-21T10:42:18.286Z,6.72
2022-10-21T10:43:55.130Z,6.82
2022-10-21T10:45:27.336Z,6.43
2022-10-21T10:47:02.477Z,6.90
2022-10-21T10:48:40.190Z,6.47
2022-10-21T10:50:46.908Z,6.13
2022-10-21T10:52:23.041Z,6.35
2022-10-21T10:54:06.664Z,5.88
2022-10-21T10:55:43.961Z,6.60
2022-10-21T10:57:33.947Z,7.00
2022-10-21T10:59:47.070Z,6.80
2022-10-21T11:01:27.330Z,6.75
2022-10-21T11:03:04.541Z,6.50
2022-10-21T11:04:42.277Z,6.63
2022-10-21T11:06:17.996Z,7.00
2022-10-21T11:08:10.893Z,6.60
2022-10-21T11:09:42.751Z,6.45
2022-10-21T11:11:36.420Z,7.40
2022-10-21T11:13:27.605Z,6.80
2022-10-21T11:15:00.295Z,6.85
2022-10-21T11:17:00.011Z,6.43
2022-10-21T11:18:41.376Z,6.88
2022-10-21T11:20:26.092Z,6.25
2022-10-21T11:22:30.211Z,6.40
2022-10-21T11:24:22.566Z,6.93
2022-10-21T11:26:40.602Z,6.53
2022-10-21T11:28:12.287Z,6.70
2022-10-21T11:29:49.980Z,6.78
2022-10-21T11:31:53.872Z,6.40
2022-10-21T11:34:02.957Z,6.20
2022-10-21T11:35:50.132Z,6.03
2022-10-21T11:37:47.492Z,7.07
2022-10-21T11:39:32.229Z,6.82
2022-10-21T11:41:20.838Z,6.60
2022-10-21T11:42:56.920Z,6.45
2022-10-21T11:44:46.778Z,6.75
2022-10-21T11:46:37.644Z,6.90
2022-10-21T11:48:23.603Z,6.45
2022-10-21T11:50:21.961Z,7.00
2022-10-21T11:52:26.009Z,7.07
2022-10-21T11:54:06.886Z,7.25
2022-10-21T11:55:57.190Z,7.85
2022-10-21T11:57:47.992Z,7.50
2022-10-21T11:59:56.555Z,8.05
2022-10-21T12:01:34.199Z,8.55
2022-10-21T12:03:26.165Z,7.90
2022-10-21T12:05:12.805Z,7.72
2022-10-21T12:07:11.044Z,7.65
2022-10-21T12:08:55.972Z,8.45
2022-10-21T12:10:51.940Z,8.68
2022-10-21T12:12:30.291Z,8.00
2022-10-21T12:14:20.570Z,7.85
2022-10-21T12:15:56.930Z,7.93
2022-10-21T12:17:32.243Z,8.15
2022-10-21T12:19:07.071Z,8.85
2022-10-21T12:20:39.650Z,7.78
2022-10-21T12:22:12.718Z,8.70
2022-10-21T12:23:47.395Z,8.60
2022-10-21T12:25:38.713Z,9.57
2022-10-21T12:27:20.053Z,8.48
2022-10-21T12:30:35.098Z,8.77
2022-10-21T12:32:24.893Z,8.18
2022-10-21T12:33:57.088Z,9.13
2022-10-21T12:35:53.384Z,9.13
2022-10-21T12:37:43.832Z,9.10
2022-10-21T12:39:35.384Z,10.40
2022-10-21T12:43:02.936Z,9.10
2022-10-21T12:44:38.190Z,9.40
2022-10-21T12:46:11.741Z,10.90
2022-10-21T12:47:45.308Z,11.43
2022-10-21T12:49:32.914Z,11.82
2022-10-21T12:51:08.811Z,12.25
2022-10-21T12:52:46.077Z,12.20
2022-10-21T12:54:24.183Z,11.20
2022-10-21T12:56:00.115Z,11.85
2022-10-21T12:57:42.070Z,10.65
2022-10-21T12:59:31.558Z,11.18
2022-10-21T13:01:06.520Z,11.00
2022-10-21T13:02:58.192Z,11.00
2022-10-21T13:04:32.712Z,10.57
2022-10-21T13:06:06.812Z,10.50
2022-10-21T13:07:39.711Z,11.07
2022-10-21T13:09:34.844Z,10.43
2022-10-21T13:11:06.584Z,12.13
2022-10-21T13:12:38.634Z,11.02
2022-10-21T13:14:16.740Z,11.32
2022-10-21T13:15:48.645Z,11.52
2022-10-21T13:17:23.219Z,12.05
2022-10-21T13:19:05.497Z,12.70
2022-10-21T13:20:39.744Z,12.32
2022-10-21T13:22:15.090Z,12.75
2022-10-21T13:23:49.292Z,12.82
2022-10-21T13:25:21.117Z,12.85
2022-10-21T13:27:00.834Z,12.82
2022-10-21T13:28:34.038Z,13.27
2022-10-21T13:30:07.569Z,14.32
2022-10-21T13:31:40.243Z,13.52
2022-10-21T13:33:19.315Z,13.18
2022-10-21T13:34:51.209Z,13.50
2022-10-21T13:36:42.991Z,14.38
2022-10-21T13:39:53.344Z,14.82
2022-10-21T13:41:30.614Z,15.32
2022-10-21T13:43:13.583Z,16.15
2022-10-21T13:44:52.606Z,14.70
2022-10-21T13:46:27.281Z,15.65
2022-10-21T13:48:04.028Z,17.10
2022-10-21T13:49:35.756Z,18.50
2022-10-21T13:51:24.922Z,17.20
2022-10-21T13:52:56.841Z,17.77
2022-10-21T13:54:34.944Z,17.77
2022-10-21T13:56:08.696Z,17.65
2022-10-21T13:57:40.955Z,17.83
2022-10-21T13:59:42.170Z,21.27
2022-10-21T14:01:21.791Z,21.83
2022-10-21T14:02:59.764Z,18.17
2022-10-21T14:04:34.027Z,19.65
2022-10-21T14:06:08.837Z,18.73
2022-10-21T14:07:40.993Z,18.30
2022-10-21T14:09:33.794Z,19.63
2022-10-21T14:11:14.281Z,18.35
2022-10-21T14:12:48.435Z,18.73
2022-10-21T14:14:24.077Z,17.77
2022-10-21T14:15:56.362Z,18.95
2022-10-21T14:17:28.492Z,17.60
2022-10-21T14:19:05.121Z,19.05
2022-10-21T14:20:38.247Z,19.05
2022-10-21T14:22:18.948Z,18.35
2022-10-21T14:23:51.981Z,19.05
2022-10-21T14:25:23.848Z,18.70
2022-10-21T14:26:56.670Z,19.08
2022-10-21T14:28:28.649Z,18.00
2022-10-21T14:30:07.081Z,17.45
2022-10-21T14:31:42.917Z,17.25
2022-10-21T14:33:25.886Z,17.15
2022-10-21T14:35:06.221Z,18.00
2022-10-21T14:37:01.107Z,17.73
2022-10-21T14:38:40.074Z,16.50
2022-10-21T14:40:32.458Z,16.92
2022-10-21T14:42:08.647Z,16.38
2022-10-21T14:43:42.318Z,17.55
2022-10-21T14:45:23.886Z,16.90
2022-10-21T14:46:55.822Z,16.83
2022-10-21T14:48:31.610Z,15.68
2022-10-21T14:50:04.259Z,15.88
2022-10-21T14:51:38.154Z,15.80
2022-10-21T14:53:19.884Z,15.15
2022-10-21T14:55:01.533Z,14.65
2022-10-21T14:56:37.431Z,14.50
2022-10-21T14:58:14.696Z,13.20
2022-10-21T14:59:50.927Z,13.90
2022-10-21T15:01:23.611Z,13.10
2022-10-21T15:02:56.891Z,13.60
2022-10-21T15:04:43.748Z,13.57
2022-10-21T15:06:26.466Z,14.48
2022-10-21T15:08:29.474Z,13.43
2022-10-21T15:10:04.430Z,12.07
2022-10-21T15:11:42.859Z,11.93
2022-10-21T15:13:19.245Z,13.20
2022-10-21T15:14:50.974Z,12.95
2022-10-21T15:16:27.226Z,12.18
2022-10-21T15:18:05.156Z,12.10
2022-10-21T15:19:48.457Z,11.55
2022-10-21T15:22:00.595Z,12.52
2022-10-21T15:23:36.974Z,12.70
2022-10-21T15:25:17.062Z,12.43
2022-10-21T15:26:52.837Z,12.82
2022-10-21T15:28:26.201Z,11.40
2022-10-21T15:30:35.097Z,11.55
2022-10-21T15:32:06.889Z,10.80
2022-10-21T15:33:38.636Z,11.30
2022-10-21T15:35:20.916Z,11.00
2022-10-21T15:36:52.708Z,10.50
2022-10-21T15:38:24.462Z,10.70
2022-10-21T15:39:56.512Z,10.98
2022-10-21T15:41:29.489Z,11.15
2022-10-21T15:43:01.357Z,11.45
2022-10-21T15:44:34.479Z,10.63
2022-10-21T15:46:06.462Z,11.65
2022-10-21T15:47:38.473Z,11.32
2022-10-21T15:49:19.871Z,11.55
2022-10-21T15:50:51.664Z,10.75
2022-10-21T15:52:23.479Z,9.85
2022-10-21T15:53:55.230Z,11.10
2022-10-21T15:55:26.998Z,10.50
2022-10-21T15:57:00.304Z,11.18
2022-10-21T15:58:32.189Z,10.02
2022-10-21T16:00:13.712Z,9.68
2022-10-21T16:01:45.658Z,9.10
2022-10-21T16:03:18.044Z,9.73
2022-10-21T16:04:53.118Z,8.95
2022-10-21T16:06:24.902Z,9.65
2022-10-21T16:07:57.135Z,9.35
2022-10-21T16:09:29.806Z,9.88
2022-10-21T16:11:01.567Z,8.75
2022-10-21T16:12:33.310Z,10.32
2022-10-21T16:14:05.209Z,8.70
2022-10-21T16:15:36.936Z,8.55
2022-10-21T16:17:11.165Z,8.98
2022-10-21T16:18:42.982Z,9.18
2022-10-21T16:20:17.794Z,8.98
2022-10-21T16:21:49.507Z,9.60
2022-10-21T16:23:21.268Z,9.43
2022-10-21T16:24:52.974Z,9.68
2022-10-21T16:26:27.680Z,9.00
2022-10-21T16:28:00.667Z,9.02
2022-10-21T16:29:32.565Z,8.68
2022-10-21T16:31:08.414Z,9.07
2022-10-21T16:32:40.431Z,10.13
2022-10-21T16:34:12.470Z,8.77
2022-10-21T16:35:48.608Z,8.93
2022-10-21T16:37:24.204Z,8.55
2022-10-21T16:38:56.259Z,8.63
2022-10-21T16:40:37.138Z,8.88
2022-10-21T16:42:08.882Z,8.77
2022-10-21T16:43:41.446Z,8.90
2022-10-21T16:45:13.938Z,8.60
2022-10-21T16:46:54.424Z,8.35
2022-10-21T16:48:26.180Z,9.67
2022-10-21T16:50:01.521Z,9.23
2022-10-21T16:51:33.417Z,9.60
2022-10-21T16:53:06.607Z,9.90
2022-10-21T16:54:38.770Z,9.35
2022-10-21T16:56:10.536Z,9.38
2022-10-21T16:57:42.638Z,10.18
2022-10-21T16:59:14.627Z,9.60
2022-10-21T17:00:48.736Z,10.95
2022-10-21T17:02:20.761Z,10.43
2022-10-21T17:03:52.650Z,10.20
2022-10-21T17:05:25.005Z,9.18
2022-10-21T17:06:58.682Z,10.00
2022-10-21T17:08:32.546Z,10.45
2022-10-21T17:10:04.638Z,10.13
2022-10-21T17:11:38.778Z,10.63
2022-10-21T17:13:12.044Z,11.07
2022-10-21T17:14:43.750Z,11.38
2022-10-21T17:16:16.008Z,10.02
2022-10-21T17:17:47.725Z,10.73
2022-10-21T17:19:19.442Z,11.45
2022-10-21T17:20:51.249Z,11.35
2022-10-21T17:22:23.002Z,10.93
2022-10-21T17:23:56.486Z,12.35
2022-10-21T17:25:29.320Z,10.93
2022-10-21T17:27:01.286Z,10.25
2022-10-21T17:28:32.972Z,12.10
2022-10-21T17:30:05.835Z,11.35
2022-10-21T17:31:39.226Z,11.48
2022-10-21T17:33:14.062Z,11.65
2022-10-21T17:34:46.181Z,10.93
2022-10-21T17:36:19.009Z,10.82
2022-10-21T17:37:51.994Z,11.10
2022-10-21T17:39:24.236Z,10.70
2022-10-21T17:40:56.128Z,11.10
2022-10-21T17:42:28.060Z,11.52
2022-10-21T17:44:01.948Z,10.70
2022-10-21T17:45:33.794Z,10.73
2022-10-21T17:47:05.544Z,10.60
2022-10-21T17:48:37.273Z,10.98
2022-10-21T17:50:10.156Z,11.20
2022-10-21T17:51:41.905Z,10.27
2022-10-21T17:53:13.636Z,10.57
2022-10-21T17:54:45.387Z,10.05
2022-10-21T17:56:17.606Z,10.73
2022-10-21T17:57:49.360Z,9.75
2022-10-21T17:59:21.123Z,9.52
2022-10-21T18:00:53.425Z,8.60
2022-10-21T18:02:28.699Z,9.15
2022-10-21T18:04:01.228Z,9.18
2022-10-21T18:05:32.952Z,8.82
2022-10-21T18:07:08.531Z,9.32
2022-10-21T18:08:42.224Z,8.68
2022-10-21T18:10:14.041Z,9.05
2022-10-21T18:11:45.796Z,9.05
2022-10-21T18:13:18.261Z,7.90
2022-10-21T18:14:51.605Z,8.13
2022-10-21T18:16:24.293Z,8.55
2022-10-21T18:17:56.005Z,7.95
2022-10-21T18:19:28.549Z,8.20
2022-10-21T18:21:05.458Z,7.40
2022-10-21T18:22:37.334Z,7.30
2022-10-21T18:24:12.372Z,6.93
2022-10-21T18:25:44.571Z,7.72
2022-10-21T18:27:16.310Z,7.68
2022-10-21T18:28:52.669Z,8.68
2022-10-21T18:30:24.425Z,7.38
2022-10-21T18:31:56.612Z,7.30
2022-10-21T18:33:29.225Z,7.20
2022-10-21T18:35:00.998Z,6.55
2022-10-21T18:36:32.850Z,6.63
2022-10-21T18:38:05.009Z,6.10
2022-10-21T18:39:36.760Z,5.82
2022-10-21T18:41:20.596Z,5.32
2022-10-21T18:42:52.808Z,5.85
2022-10-21T18:44:24.548Z,6.00
2022-10-21T18:45:56.929Z,5.95
2022-10-21T18:47:28.729Z,6.35
2022-10-21T18:49:03.808Z,7.15
2022-10-21T18:50:37.908Z,6.72
2022-10-21T18:52:11.517Z,7.25
2022-10-21T18:53:47.184Z,6.82
2022-10-21T18:55:22.634Z,6.68
2022-10-21T18:56:55.926Z,7.20
2022-10-21T18:58:31.885Z,7.07
2022-10-21T19:00:07.404Z,6.80
2022-10-21T19:01:41.710Z,6.82
2022-10-21T19:03:16.330Z,6.90
2022-10-21T19:04:49.617Z,6.78
2022-10-21T19:06:36.102Z,6.88
2022-10-21T19:08:07.986Z,7.72
2022-10-21T19:09:41.917Z,7.15
2022-10-21T19:11:14.581Z,7.75
2022-10-21T19:12:46.310Z,7.78
2022-10-21T19:14:19.152Z,7.97
2022-10-21T19:15:50.892Z,8.45
2022-10-21T19:17:23.606Z,9.75
2022-10-21T19:18:55.356Z,9.00
2022-10-21T19:20:27.241Z,8.82
2022-10-21T19:21:59.010Z,8.65
2022-10-21T19:23:32.522Z,8.18
2022-10-21T19:25:04.947Z,8.55
2022-10-21T19:26:38.957Z,9.30
2022-10-21T19:28:10.707Z,10.43
2022-10-21T19:29:43.556Z,10.90
2022-10-21T19:31:15.975Z,10.43
2022-10-21T19:32:47.675Z,10.45
2022-10-21T19:34:22.594Z,10.30
2022-10-21T19:35:54.332Z,10.02
2022-10-21T19:37:26.058Z,10.25
2022-10-21T19:38:57.807Z,10.82
2022-10-21T19:40:29.554Z,11.02
2022-10-21T19:42:01.490Z,10.80
2022-10-21T19:43:33.216Z,10.60
2022-10-21T19:45:05.438Z,9.30
2022-10-21T19:46:37.734Z,9.38
2022-10-21T19:48:09.674Z,9.00
2022-10-21T19:49:41.383Z,9.27
2022-10-21T19:51:15.621Z,9.80
2022-10-21T19:52:47.377Z,9.15
2022-10-21T19:54:19.156Z,9.70
2022-10-21T19:55:50.954Z,9.50
2022-10-21T19:57:22.744Z,8.00
2022-10-21T19:58:55.075Z,7.90
2022-10-21T20:00:26.862Z,8.55
2022-10-21T20:01:58.594Z,7.75
2022-10-21T20:03:30.401Z,8.25
2022-10-21T20:05:02.127Z,8.05
2022-10-21T20:06:35.772Z,7.57
2022-10-21T20:08:08.057Z,7.60
2022-10-21T20:09:39.826Z,7.57
2022-10-21T20:11:17.925Z,7.28
2022-10-21T20:12:49.738Z,7.88
2022-10-21T20:14:21.521Z,8.38
2022-10-21T20:15:53.321Z,7.93
2022-10-21T20:17:25.114Z,8.73
2022-10-21T20:18:58.154Z,8.05
2022-10-21T20:20:29.941Z,9.43
2022-10-21T20:22:01.686Z,8.88
2022-10-21T20:23:34.249Z,8.95
2022-10-21T20:25:06.381Z,9.57
2022-10-21T20:30:01.690Z,8.23
2022-10-21T20:31:33.432Z,8.50
2022-10-21T20:33:05.192Z,8.32
2022-10-21T20:34:37.741Z,8.02
2022-10-21T20:36:32.589Z,8.60
2022-10-21T20:38:04.356Z,8.18
2022-10-21T20:39:37.158Z,8.07
2022-10-21T20:41:13.276Z,7.10
2022-10-21T20:42:49.710Z,8.70
2022-10-21T20:44:21.807Z,8.77
2022-10-21T20:45:53.528Z,9.30
2022-10-21T20:47:27.548Z,9.93
2022-10-21T20:49:05.745Z,10.07
2022-10-21T20:50:37.490Z,8.80
2022-10-21T20:52:09.230Z,9.25
2022-10-21T20:53:52.669Z,9.02
2022-10-21T20:55:24.436Z,9.65
2022-10-21T20:56:56.952Z,9.02
2022-10-21T20:58:28.706Z,8.88
2022-10-21T21:00:00.583Z,9.25
2022-10-21T21:01:35.360Z,9.60
2022-10-21T21:03:07.166Z,10.23
2022-10-21T21:04:38.902Z,9.82
2022-10-21T21:06:12.498Z,9.35
2022-10-21T21:07:44.293Z,9.40
2022-10-21T21:09:57.460Z,8.80
2022-10-21T21:11:14.325Z,8.88
2022-10-21T21:12:46.072Z,8.82
2022-10-21T21:14:18.046Z,9.18
2022-10-21T21:15:49.793Z,8.75
2022-10-21T21:17:21.522Z,9.55
2022-10-21T21:18:58.640Z,10.23
2022-10-21T21:20:31.557Z,9.85
2022-10-21T21:22:05.096Z,10.55
2022-10-21T21:23:37.797Z,9.45
2022-10-21T21:25:10.493Z,9.43
2022-10-21T21:26:42.310Z,9.85